createdAt,value
2022-10-22T00:03:29.921Z,9.3871
2022-10-22T00:08:31.597Z,9.47984
2022-10-22T00:13:33.456Z,8.85704
2022-10-22T00:18:35.204Z,8.60709
2022-10-22T00:23:36.786Z,9.55829
2022-10-22T00:28:38.439Z,9.72884
2022-10-22T00:33:40.077Z,8.80336
2022-10-22T00:38:41.658Z,9.45094
2022-10-22T00:43:43.345Z,9.0441
2022-10-22T00:48:45.014Z,9.24768
2022-10-22T00:53:46.742Z,9.45824
2022-10-22T00:58:48.395Z,8.99805
2022-10-22T01:03:49.978Z,8.91547
2022-10-22T01:08:51.600Z,8.86784
2022-10-22T01:13:53.199Z,8.31078
2022-10-22T01:18:54.862Z,8.55342
2022-10-22T01:23:56.467Z,8.36509
2022-10-22T01:28:58.143Z,8.57247
2022-10-22T01:33:59.887Z,8.04082
2022-10-22T01:39:01.562Z,8.57247
2022-10-22T01:44:03.232Z,8.38605
2022-10-22T01:49:05.040Z,8.70078
2022-10-22T01:54:06.624Z,8.67887
2022-10-22T01:59:08.281Z,8.118
2022-10-22T02:04:09.881Z,8.76843
2022-10-22T02:09:11.542Z,8.53214
2022-10-22T02:14:13.255Z,8.37207
2022-10-22T02:19:14.871Z,8.33333
2022-10-22T02:24:16.536Z,8.58454
2022-10-22T02:29:18.190Z,8.56104
2022-10-22T02:34:19.788Z,8.24758
2022-10-22T02:39:21.542Z,8.27807
2022-10-22T02:44:23.204Z,8.26631
2022-10-22T02:49:24.848Z,6.74538
2022-10-22T02:54:26.622Z,7.80485
2022-10-22T02:59:28.343Z,7.29608
2022-10-22T03:04:29.966Z,7.48091
2022-10-22T03:09:31.572Z,7.84963
2022-10-22T03:14:33.198Z,7.38691
2022-10-22T03:19:34.797Z,7.37357
2022-10-22T03:24:36.377Z,7.66829
2022-10-22T03:29:38.019Z,7.61589
2022-10-22T03:34:39.670Z,7.04614
2022-10-22T03:39:41.255Z,7.43613
2022-10-22T03:44:42.895Z,7.4139
2022-10-22T03:49:44.508Z,7.30942
2022-10-22T03:54:46.116Z,7.10552
2022-10-22T03:59:47.858Z,7.10203
2022-10-22T04:04:49.527Z,7.00961
2022-10-22T04:09:51.166Z,7.14014
2022-10-22T04:14:52.857Z,7.30306
2022-10-22T04:19:54.477Z,6.72347
2022-10-22T04:24:56.155Z,6.83049
2022-10-22T04:29:57.931Z,6.96642
2022-10-22T04:34:59.536Z,7.43042
2022-10-22T04:40:01.510Z,7.62542
2022-10-22T04:45:03.186Z,6.55769
2022-10-22T04:50:04.821Z,6.54625
2022-10-22T04:55:06.463Z,7.28242
2022-10-22T05:00:08.175Z,7.34181
2022-10-22T05:05:10.694Z,7.06614
2022-10-22T05:10:12.472Z,7.20652
2022-10-22T05:15:14.081Z,7.12045
2022-10-22T05:20:15.770Z,7.33355
2022-10-22T05:25:17.376Z,7.12521
2022-10-22T05:30:19.010Z,6.81557
2022-10-22T05:35:20.591Z,6.66725
2022-10-22T05:40:30.520Z,6.99786
2022-10-22T05:45:32.840Z,7.00548
2022-10-22T05:50:34.485Z,7.13951
2022-10-22T05:55:36.130Z,7.09219
2022-10-22T06:00:37.749Z,6.95975
2022-10-22T06:05:39.359Z,7.40596
2022-10-22T06:10:40.960Z,6.76539
2022-10-22T06:15:42.620Z,6.52974
2022-10-22T06:20:44.275Z,6.63232
2022-10-22T06:25:45.865Z,6.50338
2022-10-22T06:30:47.531Z,6.84097
2022-10-22T06:35:49.131Z,6.6644
2022-10-22T06:40:50.690Z,6.43065
2022-10-22T06:45:52.526Z,6.62946
2022-10-22T06:50:54.149Z,6.55165
2022-10-22T06:55:55.786Z,6.50052
2022-10-22T07:00:57.545Z,6.1769
2022-10-22T07:05:59.424Z,6.1877
2022-10-22T07:11:01.024Z,6.33824
2022-10-22T07:16:02.735Z,6.46114
2022-10-22T07:21:04.387Z,6.63073
2022-10-22T07:26:06.008Z,6.08067
2022-10-22T07:31:07.619Z,6.07972
2022-10-22T07:36:09.243Z,5.92252
2022-10-22T07:41:10.833Z,6.16865
2022-10-22T07:46:12.529Z,5.53475
2022-10-22T07:51:14.161Z,5.4652
2022-10-22T07:56:15.836Z,5.55634
2022-10-22T08:01:17.490Z,5.5284
2022-10-22T08:06:19.176Z,5.61097
2022-10-22T08:11:20.828Z,5.52681
2022-10-22T08:16:22.774Z,5.23622
2022-10-22T08:21:24.394Z,4.93833
2022-10-22T08:26:26.069Z,5.00629
2022-10-22T08:31:27.730Z,5.29275
2022-10-22T08:36:29.322Z,5.34198
2022-10-22T08:41:30.972Z,5.12697
2022-10-22T08:46:32.720Z,5.12285
2022-10-22T08:51:34.352Z,5.00439
2022-10-22T08:56:36.000Z,4.26634
2022-10-22T09:01:37.630Z,4.77891
2022-10-22T09:06:39.232Z,4.33271
2022-10-22T09:11:40.862Z,4.83258
2022-10-22T09:16:42.500Z,4.68554
2022-10-22T09:21:44.158Z,4.42227
2022-10-22T09:26:45.784Z,4.46704
2022-10-22T09:31:47.407Z,4.46069
2022-10-22T09:36:49.639Z,4.72619
2022-10-22T09:41:51.339Z,5.02344
2022-10-22T09:46:52.921Z,4.98819
2022-10-22T09:51:54.560Z,4.80177
2022-10-22T09:56:56.319Z,4.94786
2022-10-22T10:02:08.379Z,5.00375
2022-10-22T10:07:21.554Z,4.97263
2022-10-22T10:12:23.444Z,4.57883
2022-10-22T10:17:25.148Z,4.75509
2022-10-22T10:22:26.775Z,4.80812
2022-10-22T10:27:28.479Z,4.79701
2022-10-22T10:32:30.304Z,4.97263
2022-10-22T10:37:32.041Z,4.84147
2022-10-22T10:42:33.647Z,4.78145
2022-10-22T10:47:35.263Z,4.51532
2022-10-22T10:52:36.878Z,4.79796
2022-10-22T10:57:38.829Z,4.76779
2022-10-22T11:02:40.591Z,4.95834
2022-10-22T11:07:42.221Z,4.84338
2022-10-22T11:12:44.229Z,4.2892
2022-10-22T11:17:46.250Z,4.37558
2022-10-22T11:23:13.593Z,4.46577
2022-10-22T11:28:19.850Z,4.61345
2022-10-22T11:33:21.509Z,4.58391
2022-10-22T11:38:23.124Z,4.84274
2022-10-22T11:43:24.749Z,4.49023
2022-10-22T11:48:26.575Z,4.40861
2022-10-22T11:53:28.178Z,4.86275
2022-10-22T11:58:29.784Z,4.99899
2022-10-22T12:03:31.413Z,4.76589
2022-10-22T12:08:33.087Z,4.65061
2022-10-22T12:13:34.731Z,4.7716
2022-10-22T12:18:36.413Z,4.98152
2022-10-22T12:23:38.061Z,5.13587
2022-10-22T12:28:39.693Z,4.75668
2022-10-22T12:33:41.444Z,4.683
2022-10-22T12:38:43.060Z,4.49944
2022-10-22T12:43:44.685Z,4.50357
2022-10-22T12:48:46.392Z,4.68173
2022-10-22T12:53:47.971Z,4.84973
2022-10-22T12:58:49.803Z,5.17461
2022-10-22T13:03:51.403Z,5.1581
2022-10-22T13:08:53.030Z,5.17302
2022-10-22T13:13:54.674Z,5.13523
2022-10-22T13:18:56.294Z,5.39946
2022-10-22T13:23:57.930Z,4.86719
2022-10-22T13:28:59.526Z,4.57883
2022-10-22T13:34:03.564Z,4.63314
2022-10-22T13:39:08.553Z,5.08315
2022-10-22T13:44:10.154Z,5.1978
2022-10-22T13:49:11.707Z,5.03138
2022-10-22T13:54:13.303Z,4.49785
2022-10-22T13:59:17.260Z,5.14571
2022-10-22T14:04:21.928Z,5.14921
2022-10-22T14:09:23.553Z,5.1635
2022-10-22T14:14:25.216Z,4.93071
2022-10-22T14:19:26.806Z,5.03234
2022-10-22T14:24:28.490Z,4.515
2022-10-22T14:29:30.091Z,4.74588
2022-10-22T14:34:31.708Z,4.45879
2022-10-22T14:39:33.319Z,3.82236
2022-10-22T14:44:34.974Z,4.16979
2022-10-22T14:49:36.582Z,4.36955
2022-10-22T14:54:38.389Z,3.8049
2022-10-22T14:59:40.043Z,3.87953
2022-10-22T15:04:41.672Z,3.78267
2022-10-22T15:09:43.291Z,4.25459
2022-10-22T15:14:44.986Z,4.05928
2022-10-22T15:19:46.581Z,3.84015
2022-10-22T15:24:48.251Z,4.02593
2022-10-22T15:29:49.986Z,4.20409
2022-10-22T15:34:51.673Z,4.48864
2022-10-22T15:39:53.332Z,3.71598
2022-10-22T15:44:55.662Z,3.34537
2022-10-22T15:49:57.331Z,3.03065
2022-10-22T15:54:59.094Z,3.28439
2022-10-22T16:00:00.749Z,3.89922
2022-10-22T16:05:02.492Z,4.7011
2022-10-22T16:10:04.095Z,3.98846
2022-10-22T16:15:05.706Z,4.07706
2022-10-22T16:20:07.406Z,4.64171
2022-10-22T16:25:09.061Z,4.73191
2022-10-22T16:30:10.662Z,4.88022
2022-10-22T16:35:12.277Z,5.07013
2022-10-22T16:40:13.872Z,4.47117
2022-10-22T16:50:17.159Z,4.99264
2022-10-22T16:55:18.905Z,5.18795
2022-10-22T17:00:20.480Z,5.355
2022-10-22T17:05:22.200Z,5.476
2022-10-22T17:15:25.877Z,5.94062
2022-10-22T17:20:27.497Z,6.24074
2022-10-22T17:25:29.190Z,6.61009
2022-10-22T17:30:31.075Z,6.66186
2022-10-22T17:35:32.755Z,7.7334
2022-10-22T17:40:34.392Z,7.4301
2022-10-22T17:45:36.028Z,7.81851
2022-10-22T17:50:37.682Z,6.72156
2022-10-22T17:55:39.292Z,6.53895
2022-10-22T18:00:41.145Z,7.36531
2022-10-22T18:05:42.904Z,8.36604
2022-10-22T18:10:44.576Z,7.75182
2022-10-22T18:15:46.182Z,7.10489
2022-10-22T18:20:47.804Z,7.39485
2022-10-22T18:25:49.412Z,6.72633
2022-10-22T18:30:51.054Z,7.31323
2022-10-22T18:35:52.698Z,6.98706
2022-10-22T18:40:54.834Z,7.9249
2022-10-22T18:45:56.637Z,9.02854
2022-10-22T18:50:58.215Z,9.50176
2022-10-22T18:55:59.858Z,8.22947
2022-10-22T19:01:01.780Z,7.93411
2022-10-22T19:06:03.652Z,8.74334
2022-10-22T19:11:05.295Z,9.86127
2022-10-22T19:16:06.985Z,9.1686
2022-10-22T19:21:08.641Z,9.28198
2022-10-22T19:26:10.281Z,9.18194
2022-10-22T19:31:11.940Z,8.45496
2022-10-22T19:36:13.673Z,9.01647
2022-10-22T19:41:15.405Z,9.90701
2022-10-22T19:46:17.031Z,10.30115
2022-10-22T19:51:18.685Z,9.10889
2022-10-22T19:56:20.338Z,10.22143
2022-10-22T20:01:21.964Z,9.73138
2022-10-22T20:06:23.600Z,10.31131
2022-10-22T20:11:25.220Z,9.46269
2022-10-22T20:16:26.833Z,9.56527
2022-10-22T20:21:28.454Z,9.40552
2022-10-22T20:26:30.176Z,9.03394
2022-10-22T20:31:31.936Z,8.74461
2022-10-22T20:36:33.577Z,9.33883
2022-10-22T20:41:35.293Z,8.5874
2022-10-22T20:46:37.012Z,8.68363
2022-10-22T20:51:38.603Z,8.19359
2022-10-22T20:56:40.198Z,8.07354
2022-10-22T21:01:41.827Z,7.99731
2022-10-22T21:06:43.778Z,8.03161
2022-10-22T21:11:45.440Z,8.88721
2022-10-22T21:16:47.123Z,8.08338
2022-10-22T21:21:48.704Z,8.63885
2022-10-22T21:26:50.394Z,8.44194
2022-10-22T21:31:52.166Z,7.81565
2022-10-22T21:36:53.790Z,7.91887
2022-10-22T21:41:55.371Z,7.40692
2022-10-22T21:46:56.969Z,8.06845
2022-10-22T21:51:58.816Z,8.11451
2022-10-22T21:57:00.576Z,8.21518
2022-10-22T22:02:05.039Z,7.92205
2022-10-22T22:07:08.020Z,7.57651
2022-10-22T22:12:09.620Z,7.73753
2022-10-22T22:17:11.515Z,7.79501
2022-10-22T22:22:13.179Z,7.21986
2022-10-22T22:27:14.842Z,7.48536
2022-10-22T22:32:16.587Z,7.54507
2022-10-22T22:37:18.335Z,7.7515
2022-10-22T22:42:19.943Z,7.35801
2022-10-22T22:47:21.715Z,8.09196
2022-10-22T22:52:23.463Z,8.17675
2022-10-22T22:57:25.105Z,7.76643
2022-10-22T23:02:26.807Z,7.98493
2022-10-22T23:07:28.418Z,7.79977
2022-10-22T23:12:30.036Z,7.23034
2022-10-22T23:17:31.638Z,6.53387
2022-10-22T23:22:33.320Z,6.19088
2022-10-22T23:27:35.035Z,6.14832
2022-10-22T23:32:36.736Z,6.49417
2022-10-22T23:37:38.528Z,6.6536
2022-10-22T23:42:40.332Z,7.12807
2022-10-22T23:47:42.314Z,6.49353
2022-10-22T23:52:44.573Z,6.64661
2022-10-22T23:57:46.354Z,7.20271
